Continental Highway — H9LY — position and weather

sailwx.info

Track history (hours):
 
Tides and Currents Weather Stations Pressure Air Temp Water Temp Dewpoint Dewpoint Depression Visibility Wind Speed Wind Dir Waves Ship Positions

Continental Highway

Last reported at 2017-Mar-24 12:17 UTC. Time now 2017-Mar-29 03:20 UTC.
Position N 36°51' W 124°23'.

Length 199.9 m; beam 32.2 m.

Type: Cargo ship. MMSI: 351223000.

Date/timePositionNaut miles runAvg speedWind from/ knotsBaromVisibWave heightAir tempDewpointWater temp
2017-Mar-24 12:17N 36°51' W 124°23'3317.1
2017-Mar-24 10:22N 37°10' W 123°49'1518.0
2017-Mar-24 09:33N 37°19' W 123°35'1918.4
2017-Mar-24 08:33N 37°29' W 123°15'1918.9
2017-Mar-24 07:33N 37°39' W 122°55'1514.6
2017-Mar-24 06:34N 37°46' W 122°39'1312.7
2017-Mar-24 05:33N 37°53' W 122°25'1111.3
2017-Mar-24 04:33N 38°03' W 122°20'9 0.4
2017-Mar-23 04:17N 38°02' W 122°08'2 3.1
2017-Mar-23 03:32N 38°03' W 122°11'1313.0
2017-Mar-23 02:33N 37°58' W 122°26'1211.7
2017-Mar-23 01:34N 37°48' W 122°32'9 9.4
2017-Mar-23 00:33N 37°41' W 122°40'1313.1
2017-Mar-22 23:33N 37°28' W 122°40'1615.8
2017-Mar-22 22:33N 37°12' W 122°38'1616.1
2017-Mar-22 21:33N 36°56' W 122°33'1615.6
2017-Mar-22 20:33N 36°41' W 122°28'1515.2
2017-Mar-22 19:33N 36°28' W 122°19'1515.4
2017-Mar-22 18:33N 36°14' W 122°10'1515.3
2017-Mar-22 17:33N 36°01' W 122°01'1615.8
2017-Mar-22 16:33N 35°47' W 121°52'1616.0
2017-Mar-22 15:33N 35°34' W 121°40'1616.0
2017-Mar-22 14:33N 35°21' W 121°29'1616.3
2017-Mar-22 13:33N 35°07' W 121°18'1716.9
2017-Mar-22 12:33N 34°52' W 121°08'1716.9
2017-Mar-22 11:33N 34°37' W 120°59'1615.7
2017-Mar-22 10:33N 34°25' W 120°47'13214.6
2017-Mar-22 01:33N 33°39' W 118°18'7 7.4
2017-Mar-22 00:33N 33°44' W 118°12'3 2.4
2017-Mar-21 23:31N 33°46' W 118°13'0 0.0
2017-Mar-21 22:31N 33°46' W 118°13'0 0.0
2017-Mar-21 21:31N 33°46' W 118°13'0 0.0
2017-Mar-21 20:31N 33°46' W 118°13'0 0.0
2017-Mar-21 19:31N 33°46' W 118°13'0 0.0
2017-Mar-21 18:19N 33°46' W 118°13'0 0.0
2017-Mar-21 17:31N 33°46' W 118°13'0 0.0
2017-Mar-21 16:19N 33°46' W 118°13'0 0.0
2017-Mar-21 15:31N 33°46' W 118°13'0 0.0
2017-Mar-21 13:31N 33°46' W 118°13'0 0.0
2017-Mar-21 12:25N 33°46' W 118°13'0 0.0
2017-Mar-21 11:31N 33°46' W 118°13'0 0.0
2017-Mar-21 10:31N 33°46' W 118°13'0 0.0
2017-Mar-21 09:31N 33°46' W 118°13'0 0.0
2017-Mar-21 08:31N 33°46' W 118°13'0 0.0
2017-Mar-21 07:31N 33°46' W 118°13'0 0.0
2017-Mar-21 05:31N 33°46' W 118°13'0 0.4
2017-Mar-21 04:31N 33°46' W 118°13'5 5.7
2017-Mar-21 03:33N 33°41' W 118°10'6 6.4
2017-Mar-21 02:33N 33°36' W 118°15'9 9.3
2017-Mar-21 01:33N 33°35' W 118°26'9 9.5
2017-Mar-21 00:33N 33°36' W 118°38'1110.7
2017-Mar-20 23:33N 33°37' W 118°50'9 9.3
2017-Mar-20 22:33N 33°37' W 119°01'9 9.5
2017-Mar-20 21:33N 33°37' W 119°13'8 8.4
2017-Mar-20 20:33N 33°37' W 119°23'7 7.3
2017-Mar-20 19:33N 33°37' W 119°32'7 7.4
2017-Mar-20 18:33N 33°37' W 119°41'8 7.4
2017-Mar-20 17:32N 33°36' W 119°50'7 7.6
2017-Mar-20 16:33N 33°36' W 119°59'9 8.1
2017-Mar-20 15:28N 33°36' W 120°09'1213.6
2017-Mar-20 14:34N 33°36' W 120°24'1616.3
2017-Mar-20 13:34N 33°36' W 120°44'1616.4
2017-Mar-20 12:34N 33°36' W 121°03'1616.3
2017-Mar-20 11:34N 33°37' W 121°23'1616.4
2017-Mar-20 10:33N 33°37' W 121°43'1616.4
2017-Mar-20 09:33N 33°37' W 122°02'1716.5
2017-Mar-20 08:31N 33°38' W 122°23'1816.8
2017-Mar-20 07:26N 33°38' W 122°45'1516.7
2017-Mar-20 06:31N 33°38' W 123°03'5116.6
2017-Mar-20 03:25N 33°40' W 124°05'  
Track history (hours):
 
Tides and Currents Weather Stations Pressure Air Temp Water Temp Dewpoint Dewpoint Depression Visibility Wind Speed Wind Dir Waves Ship Positions

Continental Highway

Last reported at 2017-Mar-24 12:17 UTC. Time now 2017-Mar-29 03:20 UTC.
Position N 36°51' W 124°23'.

Length 199.9 m; beam 32.2 m.

Type: Cargo ship. MMSI: 351223000.

Date/timePositionNaut miles runAvg speedWind from/ knotsBaromVisibWave heightAir tempDewpointWater temp
2017-Mar-24 12:17N 36°51' W 124°23'3317.1
2017-Mar-24 10:22N 37°10' W 123°49'1518.0
2017-Mar-24 09:33N 37°19' W 123°35'1918.4
2017-Mar-24 08:33N 37°29' W 123°15'1918.9
2017-Mar-24 07:33N 37°39' W 122°55'1514.6
2017-Mar-24 06:34N 37°46' W 122°39'1312.7
2017-Mar-24 05:33N 37°53' W 122°25'1111.3
2017-Mar-24 04:33N 38°03' W 122°20'9 0.4
2017-Mar-23 04:17N 38°02' W 122°08'2 3.1
2017-Mar-23 03:32N 38°03' W 122°11'1313.0
2017-Mar-23 02:33N 37°58' W 122°26'1211.7
2017-Mar-23 01:34N 37°48' W 122°32'9 9.4
2017-Mar-23 00:33N 37°41' W 122°40'1313.1
2017-Mar-22 23:33N 37°28' W 122°40'1615.8
2017-Mar-22 22:33N 37°12' W 122°38'1616.1
2017-Mar-22 21:33N 36°56' W 122°33'1615.6
2017-Mar-22 20:33N 36°41' W 122°28'1515.2
2017-Mar-22 19:33N 36°28' W 122°19'1515.4
2017-Mar-22 18:33N 36°14' W 122°10'1515.3
2017-Mar-22 17:33N 36°01' W 122°01'1615.8
2017-Mar-22 16:33N 35°47' W 121°52'1616.0
2017-Mar-22 15:33N 35°34' W 121°40'1616.0
2017-Mar-22 14:33N 35°21' W 121°29'1616.3
2017-Mar-22 13:33N 35°07' W 121°18'1716.9
2017-Mar-22 12:33N 34°52' W 121°08'1716.9
2017-Mar-22 11:33N 34°37' W 120°59'1615.7
2017-Mar-22 10:33N 34°25' W 120°47'13214.6
2017-Mar-22 01:33N 33°39' W 118°18'7 7.4
2017-Mar-22 00:33N 33°44' W 118°12'3 2.4
2017-Mar-21 23:31N 33°46' W 118°13'0 0.0
2017-Mar-21 22:31N 33°46' W 118°13'0 0.0
2017-Mar-21 21:31N 33°46' W 118°13'0 0.0
2017-Mar-21 20:31N 33°46' W 118°13'0 0.0
2017-Mar-21 19:31N 33°46' W 118°13'0 0.0
2017-Mar-21 18:19N 33°46' W 118°13'0 0.0
2017-Mar-21 17:31N 33°46' W 118°13'0 0.0
2017-Mar-21 16:19N 33°46' W 118°13'0 0.0
2017-Mar-21 15:31N 33°46' W 118°13'0 0.0
2017-Mar-21 13:31N 33°46' W 118°13'0 0.0
2017-Mar-21 12:25N 33°46' W 118°13'0 0.0
2017-Mar-21 11:31N 33°46' W 118°13'0 0.0
2017-Mar-21 10:31N 33°46' W 118°13'0 0.0
2017-Mar-21 09:31N 33°46' W 118°13'0 0.0
2017-Mar-21 08:31N 33°46' W 118°13'0 0.0
2017-Mar-21 07:31N 33°46' W 118°13'0 0.0
2017-Mar-21 05:31N 33°46' W 118°13'0 0.4
2017-Mar-21 04:31N 33°46' W 118°13'5 5.7
2017-Mar-21 03:33N 33°41' W 118°10'6 6.4
2017-Mar-21 02:33N 33°36' W 118°15'9 9.3
2017-Mar-21 01:33N 33°35' W 118°26'9 9.5
2017-Mar-21 00:33N 33°36' W 118°38'1110.7
2017-Mar-20 23:33N 33°37' W 118°50'9 9.3
2017-Mar-20 22:33N 33°37' W 119°01'9 9.5
2017-Mar-20 21:33N 33°37' W 119°13'8 8.4
2017-Mar-20 20:33N 33°37' W 119°23'7 7.3
2017-Mar-20 19:33N 33°37' W 119°32'7 7.4
2017-Mar-20 18:33N 33°37' W 119°41'8 7.4
2017-Mar-20 17:32N 33°36' W 119°50'7 7.6
2017-Mar-20 16:33N 33°36' W 119°59'9 8.1
2017-Mar-20 15:28N 33°36' W 120°09'1213.6
2017-Mar-20 14:34N 33°36' W 120°24'1616.3
2017-Mar-20 13:34N 33°36' W 120°44'1616.4
2017-Mar-20 12:34N 33°36' W 121°03'1616.3
2017-Mar-20 11:34N 33°37' W 121°23'1616.4
2017-Mar-20 10:33N 33°37' W 121°43'1616.4
2017-Mar-20 09:33N 33°37' W 122°02'1716.5
2017-Mar-20 08:31N 33°38' W 122°23'1816.8
2017-Mar-20 07:26N 33°38' W 122°45'1516.7
2017-Mar-20 06:31N 33°38' W 123°03'5116.6
2017-Mar-20 03:25N 33°40' W 124°05'  

Dump ship's entire track history